Time;durP1;ratioP1;P1;durP2;ratioP2;P2;SDS_P1;SDS_P2;PMS_P1;PMS_P2;Temp;Humidity;BMP_temperature;BMP_pressure;BME280_temperature;BME280_humidity;BME280_pressure;Samples;Min_cycle;Max_cycle;Signal;HPM_P1;HPM_P2
2022/08/03 00:01:35;;;;;;;;;;;20.60;99.90;;;;;;4138854;28;20032;-54
2022/08/03 00:03:37;;;;;;;;;;;20.50;99.90;;;;;;4144837;28;19921;-55
2022/08/03 00:05:39;;;;;;;;;;;20.40;99.90;;;;;;4129419;28;19926;-55
2022/08/03 00:07:41;;;;;;;;;;;20.40;99.90;;;;;;4136816;28;19949;-55
2022/08/03 00:09:43;;;;;;;;;;;20.30;99.90;;;;;;4145542;28;20393;-55
2022/08/03 00:11:45;;;;;;;;;;;20.30;99.90;;;;;;4143852;28;19935;-54
2022/08/03 00:13:47;;;;;;;;;;;20.20;99.90;;;;;;4144927;28;20439;-55
2022/08/03 00:15:49;;;;;;;;;;;20.20;99.90;;;;;;4144061;28;19929;-55
2022/08/03 00:17:51;;;;;;;;;;;20.10;99.90;;;;;;4140055;28;20581;-55
2022/08/03 00:19:55;;;;;;;;;;;20.10;99.90;;;;;;4145110;28;19928;-55
2022/08/03 00:21:57;;;;;;;;;;;20.10;99.90;;;;;;4145159;28;20270;-57
2022/08/03 00:23:58;;;;;;;;;;;20.00;99.90;;;;;;4135210;28;19922;-54
2022/08/03 00:26:00;;;;;;;;;;;19.80;99.90;;;;;;4129821;28;20401;-54
2022/08/03 00:28:03;;;;;;;;;;;19.90;99.90;;;;;;4145261;28;19921;-55
2022/08/03 00:30:06;;;;;;;;;;;20.10;99.90;;;;;;4142325;28;20296;-55
2022/08/03 00:32:08;;;;;;;;;;;20.10;99.90;;;;;;4144981;28;19928;-54
2022/08/03 00:34:11;;;;;;;;;;;20.20;99.90;;;;;;4145345;28;19968;-54
2022/08/03 00:36:13;;;;;;;;;;;20.20;99.90;;;;;;4139094;28;19926;-55
2022/08/03 00:38:15;;;;;;;;;;;20.10;99.90;;;;;;4128898;28;19926;-55
2022/08/03 00:40:18;;;;;;;;;;;20.20;99.90;;;;;;4140490;28;19940;-56
2022/08/03 00:42:19;;;;;;;;;;;20.20;99.90;;;;;;4140956;28;19968;-55
2022/08/03 00:44:21;;;;;;;;;;;20.20;99.90;;;;;;4141377;28;19926;-55
2022/08/03 00:46:23;;;;;;;;;;;20.20;99.90;;;;;;4145109;28;19952;-55
2022/08/03 00:48:25;;;;;;;;;;;20.20;99.90;;;;;;4143148;28;20303;-55
2022/08/03 00:50:34;;;;;;;;;;;20.10;99.90;;;;;;4140160;28;19921;-55
2022/08/03 00:52:36;;;;;;;;;;;20.00;99.90;;;;;;4145057;28;20055;-55
2022/08/03 00:54:39;;;;;;;;;;;19.90;99.90;;;;;;4144273;28;19969;-55
2022/08/03 00:56:42;;;;;;;;;;;19.80;99.90;;;;;;4128793;28;20361;-54
2022/08/03 00:59:00;;;;;;;;;;;19.60;99.90;;;;;;4138598;28;19979;-56
2022/08/03 01:01:05;;;;;;;;;;;19.50;99.90;;;;;;4144344;28;19925;-55
2022/08/03 01:03:08;;;;;;;;;;;19.60;99.90;;;;;;4127525;28;19996;-55
2022/08/03 01:05:10;;;;;;;;;;;19.70;99.90;;;;;;4136754;28;20556;-55
2022/08/03 01:07:12;;;;;;;;;;;19.80;99.90;;;;;;4144871;28;19921;-56
2022/08/03 01:09:24;;;;;;;;;;;19.80;99.90;;;;;;4144583;28;19972;-55
2022/08/03 01:11:49;;;;;;;;;;;19.80;99.90;;;;;;4142797;28;20282;-56
2022/08/03 01:14:05;;;;;;;;;;;19.60;99.90;;;;;;4142178;28;20008;-55
2022/08/03 01:16:27;;;;;;;;;;;19.60;99.90;;;;;;4145146;28;19925;-56
2022/08/03 01:18:56;;;;;;;;;;;19.60;99.90;;;;;;4144091;28;19984;-55
2022/08/03 01:21:00;;;;;;;;;;;19.50;99.90;;;;;;4137634;28;19922;-56
2022/08/03 01:23:09;;;;;;;;;;;19.50;99.90;;;;;;4128658;28;19922;-55
2022/08/03 01:25:29;;;;;;;;;;;19.40;99.90;;;;;;4142089;28;19922;-55
2022/08/03 01:27:50;;;;;;;;;;;19.40;99.90;;;;;;4143425;28;20016;-55
2022/08/03 01:29:57;;;;;;;;;;;19.30;99.90;;;;;;4143119;28;19921;-54
2022/08/03 01:32:01;;;;;;;;;;;19.20;99.90;;;;;;4128435;28;19922;-56
2022/08/03 01:34:24;;;;;;;;;;;19.10;99.90;;;;;;4140723;28;20229;-56
2022/08/03 01:36:32;;;;;;;;;;;19.10;99.90;;;;;;4141645;28;19921;-55
2022/08/03 01:38:37;;;;;;;;;;;19.10;99.90;;;;;;4127994;28;19980;-56
2022/08/03 01:40:40;;;;;;;;;;;19.00;99.90;;;;;;4139605;28;19925;-54
2022/08/03 01:42:43;;;;;;;;;;;18.90;99.90;;;;;;4142872;28;19922;-55
2022/08/03 01:44:47;;;;;;;;;;;18.90;99.90;;;;;;4146779;28;19922;-55
2022/08/03 01:46:50;;;;;;;;;;;18.80;99.90;;;;;;4147391;28;20397;-56
2022/08/03 01:48:52;;;;;;;;;;;18.70;99.90;;;;;;4147137;28;20314;-55
2022/08/03 01:50:55;;;;;;;;;;;18.60;99.90;;;;;;4145371;28;19973;-55
2022/08/03 01:52:57;;;;;;;;;;;18.60;99.90;;;;;;4147517;28;20373;-55
2022/08/03 01:55:00;;;;;;;;;;;18.60;99.90;;;;;;4147458;28;19921;-55
2022/08/03 01:57:02;;;;;;;;;;;18.60;99.90;;;;;;4132403;28;20464;-55
2022/08/03 01:59:05;;;;;;;;;;;18.60;99.90;;;;;;4135444;28;19921;-55
2022/08/03 02:01:09;;;;;;;;;;;18.60;99.90;;;;;;4147653;28;19925;-53
2022/08/03 02:03:12;;;;;;;;;;;18.60;99.90;;;;;;4134401;28;19922;-55
2022/08/03 02:05:14;;;;;;;;;;;18.50;99.90;;;;;;4134888;28;19921;-55
2022/08/03 02:07:16;;;;;;;;;;;18.50;99.90;;;;;;4147218;28;19925;-55
2022/08/03 02:09:19;;;;;;;;;;;18.60;99.90;;;;;;4147363;28;19925;-55
2022/08/03 02:11:22;;;;;;;;;;;18.60;99.90;;;;;;4147073;28;19932;-54
2022/08/03 02:13:25;;;;;;;;;;;18.70;99.90;;;;;;4147232;28;19921;-54
2022/08/03 02:15:27;;;;;;;;;;;18.60;99.90;;;;;;4137740;28;19922;-55
2022/08/03 02:17:31;;;;;;;;;;;18.70;99.90;;;;;;4135312;28;20589;-55
2022/08/03 02:19:41;;;;;;;;;;;18.70;99.90;;;;;;4130991;28;19932;-56
2022/08/03 02:21:44;;;;;;;;;;;18.70;99.90;;;;;;4139008;28;20283;-55
2022/08/03 02:23:58;;;;;;;;;;;18.60;99.90;;;;;;4131262;28;20401;-55
2022/08/03 02:26:02;;;;;;;;;;;18.70;99.90;;;;;;4146894;28;19925;-55
2022/08/03 02:28:10;;;;;;;;;;;18.70;99.90;;;;;;4138939;28;19944;-56
2022/08/03 02:30:13;;;;;;;;;;;18.70;99.90;;;;;;4130743;28;19922;-54
2022/08/03 02:32:16;;;;;;;;;;;18.60;99.90;;;;;;4146481;28;20189;-54
2022/08/03 02:34:20;;;;;;;;;;;18.60;99.90;;;;;;4139780;28;19942;-54
2022/08/03 02:36:27;;;;;;;;;;;18.60;99.90;;;;;;4130811;28;19926;-55
2022/08/03 02:38:35;;;;;;;;;;;18.60;99.90;;;;;;4145214;28;19921;-54
2022/08/03 02:40:38;;;;;;;;;;;18.60;99.90;;;;;;4139999;28;20025;-54
2022/08/03 02:42:41;;;;;;;;;;;18.60;99.90;;;;;;4130650;28;20452;-55
2022/08/03 02:44:47;;;;;;;;;;;18.60;99.90;;;;;;4160594;28;20007;-54
2022/08/03 02:46:52;;;;;;;;;;;18.60;99.90;;;;;;4145156;28;19929;-56
2022/08/03 02:48:54;;;;;;;;;;;18.60;99.90;;;;;;4146691;28;20015;-55
2022/08/03 02:50:57;;;;;;;;;;;18.60;99.90;;;;;;4146602;28;19988;-55
2022/08/03 02:53:01;;;;;;;;;;;18.50;99.90;;;;;;4143552;28;19937;-55
2022/08/03 02:55:03;;;;;;;;;;;18.50;99.90;;;;;;4129745;28;19922;-55
2022/08/03 02:57:08;;;;;;;;;;;18.50;99.90;;;;;;4140611;28;20029;-55
2022/08/03 02:59:11;;;;;;;;;;;18.50;99.90;;;;;;4144819;28;19922;-54
2022/08/03 03:01:13;;;;;;;;;;;18.50;99.90;;;;;;4128859;28;19937;-54
2022/08/03 03:03:15;;;;;;;;;;;18.50;99.90;;;;;;4138587;28;19983;-55
2022/08/03 03:05:17;;;;;;;;;;;18.40;99.90;;;;;;4146280;28;19925;-54
2022/08/03 03:07:40;;;;;;;;;;;18.40;99.90;;;;;;4135941;28;19933;-56
2022/08/03 03:09:53;;;;;;;;;;;18.40;99.90;;;;;;4146707;28;19921;-55
2022/08/03 03:11:55;;;;;;;;;;;18.40;99.90;;;;;;4145798;28;19926;-56
2022/08/03 03:13:58;;;;;;;;;;;18.30;99.90;;;;;;4145988;28;19925;-55
2022/08/03 03:16:02;;;;;;;;;;;18.20;99.90;;;;;;4137564;28;19968;-55
2022/08/03 03:18:05;;;;;;;;;;;18.30;99.90;;;;;;4138989;28;19922;-54
2022/08/03 03:20:08;;;;;;;;;;;18.20;99.90;;;;;;4129942;28;19973;-54
2022/08/03 03:22:11;;;;;;;;;;;18.20;99.90;;;;;;4136793;28;20449;-55
2022/08/03 03:24:13;;;;;;;;;;;18.20;99.90;;;;;;4146012;28;19921;-55
2022/08/03 03:26:16;;;;;;;;;;;18.20;99.90;;;;;;4131764;28;19928;-56
2022/08/03 03:28:18;;;;;;;;;;;18.10;99.90;;;;;;4134702;28;20432;-55
2022/08/03 03:30:20;;;;;;;;;;;18.10;99.90;;;;;;4145643;28;19932;-55
2022/08/03 03:32:22;;;;;;;;;;;18.10;99.90;;;;;;4134192;28;19968;-54
2022/08/03 03:34:24;;;;;;;;;;;18.10;99.90;;;;;;4131814;28;20271;-55
2022/08/03 03:36:26;;;;;;;;;;;18.00;99.90;;;;;;4145990;28;19925;-55
2022/08/03 03:38:28;;;;;;;;;;;17.90;99.90;;;;;;4135991;28;19929;-55
2022/08/03 03:40:30;;;;;;;;;;;17.90;99.90;;;;;;4129574;28;19964;-54
2022/08/03 03:42:32;;;;;;;;;;;17.90;99.90;;;;;;4146108;28;20266;-54
2022/08/03 03:44:34;;;;;;;;;;;17.80;99.90;;;;;;4145358;28;19921;-55
2022/08/03 03:46:36;;;;;;;;;;;17.70;99.90;;;;;;4146185;28;20309;-54
2022/08/03 03:48:38;;;;;;;;;;;17.70;99.90;;;;;;4130863;28;19926;-56
2022/08/03 03:50:42;;;;;;;;;;;17.60;99.90;;;;;;4140181;28;19925;-55
2022/08/03 03:52:44;;;;;;;;;;;17.50;99.90;;;;;;4145509;28;19976;-54
2022/08/03 03:54:46;;;;;;;;;;;17.50;99.90;;;;;;4132488;28;20480;-55
2022/08/03 03:56:48;;;;;;;;;;;17.50;99.90;;;;;;4132338;28;19968;-56
2022/08/03 03:58:50;;;;;;;;;;;17.50;99.90;;;;;;4144293;28;19937;-54
2022/08/03 04:00:52;;;;;;;;;;;17.50;99.90;;;;;;4134755;28;19922;-55
2022/08/03 04:02:55;;;;;;;;;;;17.40;99.90;;;;;;4130462;28;19922;-55
2022/08/03 04:12:08;;;;;;;;;;;17.50;99.90;;;;;;4133030;28;19972;-55
2022/08/03 04:14:17;;;;;;;;;;;17.40;99.90;;;;;;4144543;28;19925;-54
2022/08/03 04:16:26;;;;;;;;;;;17.40;99.90;;;;;;4145023;28;20493;-55
2022/08/03 04:18:40;;;;;;;;;;;17.50;99.90;;;;;;4144948;28;20483;-55
2022/08/03 04:20:45;;;;;;;;;;;17.50;99.90;;;;;;4128798;28;20004;-56
2022/08/03 04:22:49;;;;;;;;;;;17.50;99.90;;;;;;4136265;28;19925;-54
2022/08/03 04:25:16;;;;;;;;;;;17.50;99.90;;;;;;4145224;28;19932;-55
2022/08/03 04:27:24;;;;;;;;;;;17.50;99.90;;;;;;4129010;28;19926;-54
2022/08/03 04:29:27;;;;;;;;;;;17.60;99.90;;;;;;4138833;28;19995;-55
2022/08/03 04:31:34;;;;;;;;;;;17.60;99.90;;;;;;4144158;28;19921;-54
2022/08/03 04:33:37;;;;;;;;;;;17.50;99.90;;;;;;4128931;28;20436;-55
2022/08/03 04:35:42;;;;;;;;;;;17.50;99.90;;;;;;4136811;28;20015;-54
2022/08/03 04:38:06;;;;;;;;;;;17.50;99.90;;;;;;4142816;28;19925;-54
2022/08/03 04:40:12;;;;;;;;;;;17.50;99.90;;;;;;4128916;28;19926;-54
2022/08/03 04:42:15;;;;;;;;;;;17.50;99.90;;;;;;4138255;28;20029;-56
2022/08/03 04:44:18;;;;;;;;;;;17.50;99.90;;;;;;4144853;28;20388;-55
2022/08/03 04:46:27;;;;;;;;;;;17.50;99.90;;;;;;4144952;28;19921;-55
2022/08/03 04:48:30;;;;;;;;;;;17.50;99.90;;;;;;4136101;28;19932;-55
2022/08/03 04:50:33;;;;;;;;;;;17.60;99.90;;;;;;4139906;28;19950;-55
2022/08/03 04:52:36;;;;;;;;;;;17.60;99.90;;;;;;4143915;28;19925;-54
2022/08/03 04:54:42;;;;;;;;;;;17.60;99.90;;;;;;4136633;28;19952;-55
2022/08/03 04:56:50;;;;;;;;;;;17.60;99.90;;;;;;4128699;28;19960;-54
2022/08/03 04:58:52;;;;;;;;;;;17.70;99.90;;;;;;4142459;28;19951;-56
2022/08/03 05:00:55;;;;;;;;;;;17.70;99.90;;;;;;4138963;28;19925;-55
2022/08/03 05:03:00;;;;;;;;;;;17.70;99.90;;;;;;4128830;28;20369;-54
2022/08/03 05:05:03;;;;;;;;;;;17.80;99.90;;;;;;4142027;28;20378;-54
2022/08/03 05:07:06;;;;;;;;;;;17.80;99.90;;;;;;4141523;28;20317;-55
2022/08/03 05:09:21;;;;;;;;;;;18.00;99.90;;;;;;4143487;28;20214;-54
2022/08/03 05:11:46;;;;;;;;;;;18.00;99.90;;;;;;4136756;28;20409;-55
2022/08/03 05:13:49;;;;;;;;;;;18.00;99.90;;;;;;4144254;28;20464;-55
2022/08/03 05:15:52;;;;;;;;;;;18.00;99.90;;;;;;4143288;28;20377;-56
2022/08/03 05:17:55;;;;;;;;;;;18.00;99.90;;;;;;4140550;28;20424;-56
2022/08/03 05:19:57;;;;;;;;;;;18.10;99.90;;;;;;4147924;28;19925;-56
2022/08/03 05:21:59;;;;;;;;;;;18.10;99.90;;;;;;4146626;28;19979;-57
2022/08/03 05:24:03;;;;;;;;;;;18.20;99.90;;;;;;4135093;28;20301;-56
2022/08/03 05:26:06;;;;;;;;;;;18.30;99.90;;;;;;4131720;28;20378;-56
2022/08/03 05:28:09;;;;;;;;;;;18.40;99.90;;;;;;4131834;28;20377;-55
2022/08/03 05:30:12;;;;;;;;;;;18.40;99.90;;;;;;4141965;28;20353;-55
2022/08/03 05:32:34;;;;;;;;;;;18.50;99.90;;;;;;4143921;28;19926;-56
2022/08/03 05:34:54;;;;;;;;;;;18.50;99.90;;;;;;4131937;28;19952;-56
2022/08/03 05:36:58;;;;;;;;;;;18.60;99.90;;;;;;4145068;28;19951;-56
2022/08/03 05:39:00;;;;;;;;;;;18.60;99.90;;;;;;4143605;28;19933;-56
2022/08/03 05:41:04;;;;;;;;;;;18.60;99.90;;;;;;4129534;28;20464;-56
2022/08/03 05:43:24;;;;;;;;;;;18.60;99.90;;;;;;4145451;28;19944;-56
2022/08/03 05:45:27;;;;;;;;;;;18.70;99.90;;;;;;4147390;28;19925;-56
2022/08/03 05:47:30;;;;;;;;;;;18.70;99.90;;;;;;4147428;28;20329;-56
2022/08/03 05:49:34;;;;;;;;;;;18.70;99.90;;;;;;4138238;28;19944;-57
2022/08/03 05:51:46;;;;;;;;;;;18.70;99.90;;;;;;4147371;28;19921;-56
2022/08/03 05:53:49;;;;;;;;;;;18.80;99.90;;;;;;4147755;28;19948;-56
2022/08/03 05:55:53;;;;;;;;;;;19.20;99.90;;;;;;4135339;28;19961;-56
2022/08/03 05:58:02;;;;;;;;;;;19.20;99.90;;;;;;4134355;28;19925;-56
2022/08/03 06:00:06;;;;;;;;;;;19.40;99.90;;;;;;4147716;28;19944;-56
2022/08/03 06:02:08;;;;;;;;;;;19.40;99.90;;;;;;4136012;28;20473;-56
2022/08/03 06:04:11;;;;;;;;;;;19.40;99.90;;;;;;4132689;28;20433;-57
2022/08/03 06:06:14;;;;;;;;;;;19.40;99.90;;;;;;4147029;28;20581;-57
2022/08/03 06:08:16;;;;;;;;;;;19.70;99.90;;;;;;4146990;28;19921;-56
2022/08/03 06:10:19;;;;;;;;;;;19.70;99.90;;;;;;4147486;28;20349;-56
2022/08/03 06:12:37;;;;;;;;;;;19.90;99.90;;;;;;4146382;28;19933;-56
2022/08/03 06:14:40;;;;;;;;;;;20.40;99.90;;;;;;4146932;28;20012;-56
2022/08/03 06:16:43;;;;;;;;;;;20.30;99.90;;;;;;4147142;28;19933;-56
2022/08/03 06:18:46;;;;;;;;;;;20.20;99.90;;;;;;4146702;28;19926;-56
2022/08/03 06:20:49;;;;;;;;;;;20.30;99.90;;;;;;4147248;28;19921;-56
2022/08/03 06:22:52;;;;;;;;;;;20.40;99.90;;;;;;4146925;28;19922;-57
2022/08/03 06:25:01;;;;;;;;;;;20.40;99.90;;;;;;4147106;28;19959;-57
2022/08/03 06:27:05;;;;;;;;;;;20.50;99.90;;;;;;4146987;28;19925;-57
2022/08/03 06:29:07;;;;;;;;;;;20.50;99.90;;;;;;4144608;28;19969;-56
2022/08/03 06:31:10;;;;;;;;;;;20.60;99.90;;;;;;4142825;28;19921;-55
2022/08/03 06:33:13;;;;;;;;;;;20.70;99.90;;;;;;4146331;28;19968;-57
2022/08/03 06:35:18;;;;;;;;;;;20.80;99.90;;;;;;4136293;28;19933;-57
2022/08/03 06:37:20;;;;;;;;;;;20.80;99.90;;;;;;4132226;28;19921;-56
2022/08/03 06:39:22;;;;;;;;;;;20.90;99.90;;;;;;4135250;28;19921;-57
2022/08/03 06:41:25;;;;;;;;;;;21.00;99.90;;;;;;4129864;28;20005;-57
2022/08/03 06:43:27;;;;;;;;;;;21.10;99.90;;;;;;4134455;28;19925;-57
2022/08/03 06:45:29;;;;;;;;;;;21.30;99.90;;;;;;4146909;28;20019;-57
2022/08/03 06:47:32;;;;;;;;;;;21.50;99.90;;;;;;4146524;28;19921;-57
2022/08/03 06:49:35;;;;;;;;;;;21.70;99.90;;;;;;4146697;28;20393;-57
2022/08/03 06:51:37;;;;;;;;;;;22.00;99.90;;;;;;4146777;28;19925;-56
2022/08/03 06:53:59;;;;;;;;;;;22.10;99.90;;;;;;4146663;28;20392;-56
2022/08/03 06:56:03;;;;;;;;;;;22.20;99.90;;;;;;4146771;28;19925;-57
2022/08/03 06:58:06;;;;;;;;;;;22.30;99.90;;;;;;4146262;28;19964;-56
2022/08/03 07:00:08;;;;;;;;;;;22.50;99.90;;;;;;4146750;28;19928;-56
2022/08/03 07:02:15;;;;;;;;;;;22.80;99.90;;;;;;4146272;28;19922;-56
2022/08/03 07:04:21;;;;;;;;;;;23.00;99.90;;;;;;4146601;28;19975;-57
2022/08/03 07:06:24;;;;;;;;;;;23.20;99.90;;;;;;4146287;28;19972;-57
2022/08/03 07:08:26;;;;;;;;;;;23.50;99.90;;;;;;4146216;28;19925;-57
2022/08/03 07:10:55;;;;;;;;;;;23.60;99.90;;;;;;4146084;28;19922;-56
2022/08/03 07:12:57;;;;;;;;;;;23.70;99.90;;;;;;4146057;28;19987;-56
2022/08/03 07:15:00;;;;;;;;;;;23.70;99.90;;;;;;4128677;28;20329;-56
2022/08/03 07:17:04;;;;;;;;;;;23.80;99.90;;;;;;4130829;28;19969;-57
2022/08/03 07:19:14;;;;;;;;;;;23.90;99.90;;;;;;4146285;28;19921;-57
2022/08/03 07:21:30;;;;;;;;;;;24.10;99.90;;;;;;4130135;28;20328;-56
2022/08/03 07:23:33;;;;;;;;;;;24.40;99.90;;;;;;4137491;28;20393;-57
2022/08/03 07:25:37;;;;;;;;;;;24.50;99.90;;;;;;4144781;28;19932;-57
2022/08/03 07:27:42;;;;;;;;;;;24.70;99.90;;;;;;4130485;28;20389;-56
2022/08/03 07:29:44;;;;;;;;;;;24.80;99.90;;;;;;4136069;28;20150;-58
2022/08/03 07:31:48;;;;;;;;;;;24.80;99.90;;;;;;4146086;28;20407;-57
2022/08/03 07:33:51;;;;;;;;;;;24.90;99.90;;;;;;4131572;28;20349;-57
2022/08/03 07:35:54;;;;;;;;;;;25.10;99.90;;;;;;4134172;28;19921;-56
2022/08/03 07:37:56;;;;;;;;;;;25.30;99.90;;;;;;4146232;28;19928;-57
2022/08/03 07:39:59;;;;;;;;;;;25.40;99.90;;;;;;4132400;28;19926;-57
2022/08/03 07:42:01;;;;;;;;;;;25.50;99.90;;;;;;4132107;28;19928;-57
2022/08/03 07:44:05;;;;;;;;;;;25.60;99.90;;;;;;4145545;28;20294;-56
2022/08/03 07:46:08;;;;;;;;;;;25.70;99.90;;;;;;4145466;28;20400;-56
2022/08/03 07:48:13;;;;;;;;;;;25.90;99.90;;;;;;4145785;28;19926;-56
2022/08/03 07:50:16;;;;;;;;;;;26.30;99.90;;;;;;4145982;28;19972;-57
2022/08/03 07:54:39;;;;;;;;;;;27.00;99.90;;;;;;4143930;28;19925;-57
2022/08/03 07:56:42;;;;;;;;;;;27.10;99.90;;;;;;4129323;28;19932;-58
2022/08/03 07:58:46;;;;;;;;;;;27.60;99.90;;;;;;4138474;28;19929;-56
2022/08/03 08:00:51;;;;;;;;;;;27.60;99.90;;;;;;4145459;28;19983;-57
2022/08/03 08:02:54;;;;;;;;;;;27.60;99.90;;;;;;4160854;28;19931;-56
2022/08/03 08:04:56;;;;;;;;;;;27.90;99.90;;;;;;4145011;28;19925;-58
2022/08/03 08:07:04;;;;;;;;;;;28.00;99.90;;;;;;4145650;28;20011;-57
2022/08/03 08:09:10;;;;;;;;;;;28.20;99.90;;;;;;4145200;28;20020;-56
2022/08/03 08:11:14;;;;;;;;;;;28.10;99.90;;;;;;4142255;28;19964;-56
2022/08/03 08:13:16;;;;;;;;;;;28.20;99.90;;;;;;4145400;28;19951;-57
2022/08/03 08:15:18;;;;;;;;;;;28.60;99.90;;;;;;4145657;28;19983;-56
2022/08/03 08:17:21;;;;;;;;;;;28.70;99.90;;;;;;4143784;28;19926;-57
2022/08/03 08:19:24;;;;;;;;;;;28.80;99.90;;;;;;4145201;28;20396;-57
2022/08/03 08:21:27;;;;;;;;;;;28.70;99.90;;;;;;4145253;28;19987;-57
2022/08/03 08:23:49;;;;;;;;;;;28.90;98.90;;;;;;4152417;28;19925;-56
2022/08/03 08:25:58;;;;;;;;;;;29.10;99.40;;;;;;4129063;28;19926;-56
2022/08/03 08:28:03;;;;;;;;;;;29.20;97.70;;;;;;4142345;28;20320;-57
2022/08/03 08:30:24;;;;;;;;;;;29.60;97.90;;;;;;4138070;28;19969;-56
2022/08/03 08:32:26;;;;;;;;;;;29.80;98.30;;;;;;4128939;28;19925;-57
2022/08/03 08:34:30;;;;;;;;;;;29.90;97.60;;;;;;4143271;28;19928;-57
2022/08/03 08:36:32;;;;;;;;;;;29.70;95.70;;;;;;4155145;28;19921;-57
2022/08/03 08:38:35;;;;;;;;;;;29.40;95.60;;;;;;4128902;28;19926;-58
2022/08/03 08:40:36;;;;;;;;;;;29.40;95.70;;;;;;4140763;28;19922;-56
2022/08/03 08:42:39;;;;;;;;;;;29.40;95.80;;;;;;4142402;28;20460;-56
2022/08/03 08:44:53;;;;;;;;;;;29.50;95.10;;;;;;4133960;28;19925;-57
2022/08/03 08:46:59;;;;;;;;;;;29.70;93.00;;;;;;4140186;28;20192;-58
2022/08/03 08:49:03;;;;;;;;;;;29.80;92.50;;;;;;4142018;28;19925;-58
2022/08/03 08:51:07;;;;;;;;;;;29.90;91.60;;;;;;4143166;28;19930;-56
2022/08/03 08:53:11;;;;;;;;;;;30.10;92.00;;;;;;4135666;28;19948;-57
2022/08/03 08:55:22;;;;;;;;;;;30.10;91.10;;;;;;4129612;28;20362;-57
2022/08/03 08:57:27;;;;;;;;;;;30.20;91.30;;;;;;4157172;28;20348;-58
2022/08/03 08:59:45;;;;;;;;;;;29.90;90.70;;;;;;4134703;28;20373;-58
2022/08/03 09:01:49;;;;;;;;;;;30.00;91.30;;;;;;4138814;28;19925;-58
2022/08/03 09:03:53;;;;;;;;;;;30.10;90.30;;;;;;4137417;28;19936;-58
2022/08/03 09:05:56;;;;;;;;;;;30.10;90.20;;;;;;4132696;28;19976;-57
2022/08/03 09:07:58;;;;;;;;;;;30.50;90.10;;;;;;4135588;28;19927;-58
2022/08/03 09:10:20;;;;;;;;;;;30.70;91.00;;;;;;4128260;28;20378;-56
2022/08/03 09:12:23;;;;;;;;;;;30.80;91.20;;;;;;4133374;28;20507;-59
2022/08/03 09:14:43;;;;;;;;;;;30.90;89.10;;;;;;4144778;28;20293;-56
2022/08/03 09:17:03;;;;;;;;;;;30.80;87.10;;;;;;4134054;28;19925;-57
2022/08/03 09:19:12;;;;;;;;;;;31.20;90.20;;;;;;4144706;28;19984;-57
2022/08/03 09:21:17;;;;;;;;;;;31.30;90.50;;;;;;4143170;28;19922;-56
2022/08/03 09:23:45;;;;;;;;;;;31.30;86.80;;;;;;4134259;28;19984;-57
2022/08/03 09:26:03;;;;;;;;;;;31.40;87.80;;;;;;4128884;28;19933;-58
2022/08/03 09:28:15;;;;;;;;;;;31.30;86.40;;;;;;4137286;28;19965;-57
2022/08/03 09:30:41;;;;;;;;;;;31.50;89.40;;;;;;4141417;28;19925;-57
2022/08/03 09:32:44;;;;;;;;;;;31.40;85.90;;;;;;4142418;28;19968;-58
2022/08/03 09:34:50;;;;;;;;;;;31.40;87.70;;;;;;4138128;28;19952;-57
2022/08/03 09:36:58;;;;;;;;;;;31.50;82.70;;;;;;4132919;28;20286;-57
2022/08/03 09:39:05;;;;;;;;;;;31.20;85.90;;;;;;4128244;28;19972;-57
2022/08/03 09:41:16;;;;;;;;;;;31.50;84.80;;;;;;4135484;28;19921;-56
2022/08/03 09:43:20;;;;;;;;;;;31.50;81.70;;;;;;4153604;28;20598;-57
2022/08/03 09:45:26;;;;;;;;;;;31.50;82.50;;;;;;4141960;28;19925;-57
2022/08/03 09:47:37;;;;;;;;;;;31.80;85.10;;;;;;4144783;28;20409;-56
2022/08/03 09:49:55;;;;;;;;;;;32.00;84.70;;;;;;4131659;28;19926;-57
2022/08/03 09:52:11;;;;;;;;;;;32.10;83.40;;;;;;4139452;28;19926;-56
2022/08/03 09:54:34;;;;;;;;;;;32.20;81.60;;;;;;4141113;28;19933;-57
2022/08/03 09:56:44;;;;;;;;;;;32.10;82.50;;;;;;4141132;28;19997;-57
2022/08/03 09:58:51;;;;;;;;;;;31.80;79.10;;;;;;4133137;28;20024;-57
2022/08/03 10:00:56;;;;;;;;;;;31.80;83.20;;;;;;4133414;28;19922;-57
2022/08/03 10:03:03;;;;;;;;;;;32.10;81.00;;;;;;4141354;28;20316;-57
2022/08/03 10:05:08;;;;;;;;;;;32.50;79.60;;;;;;4142814;28;19932;-57
2022/08/03 10:07:11;;;;;;;;;;;32.50;80.50;;;;;;4142497;28;19927;-56
2022/08/03 10:09:14;;;;;;;;;;;32.40;80.70;;;;;;4145335;28;20320;-58
2022/08/03 10:11:31;;;;;;;;;;;32.50;79.80;;;;;;4135822;28;19929;-58
2022/08/03 10:13:38;;;;;;;;;;;32.70;77.00;;;;;;4141234;28;19922;-57
2022/08/03 10:15:43;;;;;;;;;;;32.70;76.60;;;;;;4130749;28;19925;-56
2022/08/03 10:18:09;;;;;;;;;;;32.40;78.50;;;;;;4137099;28;19925;-57
2022/08/03 10:20:11;;;;;;;;;;;32.60;78.00;;;;;;4146622;28;19983;-57
2022/08/03 10:22:14;;;;;;;;;;;32.90;79.70;;;;;;4138404;28;19926;-56
2022/08/03 10:24:24;;;;;;;;;;;32.80;77.90;;;;;;4144909;28;19926;-57
2022/08/03 10:26:30;;;;;;;;;;;32.60;78.00;;;;;;4131241;28;19922;-57
2022/08/03 10:28:36;;;;;;;;;;;32.90;76.00;;;;;;4130999;28;19925;-58
2022/08/03 10:30:50;;;;;;;;;;;33.10;80.00;;;;;;4129098;28;19941;-58
2022/08/03 10:32:56;;;;;;;;;;;33.50;77.30;;;;;;4131123;28;19926;-57
2022/08/03 10:35:01;;;;;;;;;;;33.30;75.80;;;;;;4138451;28;20296;-57
2022/08/03 10:37:22;;;;;;;;;;;33.40;75.40;;;;;;4131183;28;19925;-58
2022/08/03 10:39:27;;;;;;;;;;;33.30;74.30;;;;;;4146610;28;19932;-57
2022/08/03 10:41:37;;;;;;;;;;;33.30;73.80;;;;;;4137449;28;20294;-57
2022/08/03 10:44:02;;;;;;;;;;;33.30;74.00;;;;;;4137318;28;19966;-57
2022/08/03 10:46:07;;;;;;;;;;;33.50;75.60;;;;;;4140390;28;19926;-58
2022/08/03 10:48:09;;;;;;;;;;;33.20;73.70;;;;;;4130635;28;20428;-57
2022/08/03 10:50:11;;;;;;;;;;;33.50;74.80;;;;;;4138847;28;20389;-56
2022/08/03 10:52:13;;;;;;;;;;;33.20;73.40;;;;;;4142271;28;19975;-57
2022/08/03 10:54:34;;;;;;;;;;;33.00;73.60;;;;;;4136997;28;19968;-57
2022/08/03 10:59:04;;;;;;;;;;;33.60;75.00;;;;;;4146496;28;19925;-59
2022/08/03 11:01:10;;;;;;;;;;;33.60;74.40;;;;;;4132715;28;20385;-57
2022/08/03 11:03:13;;;;;;;;;;;34.00;75.60;;;;;;4130093;28;20354;-57
2022/08/03 11:05:29;;;;;;;;;;;33.60;72.70;;;;;;4130164;28;19921;-57
2022/08/03 11:07:31;;;;;;;;;;;33.40;72.70;;;;;;4143415;28;19968;-57
2022/08/03 11:09:41;;;;;;;;;;;33.40;71.30;;;;;;4151785;28;20321;-58
2022/08/03 11:11:47;;;;;;;;;;;33.40;74.00;;;;;;4146200;28;20465;-58
2022/08/03 11:13:58;;;;;;;;;;;33.90;76.90;;;;;;4146450;28;19961;-57
2022/08/03 11:16:02;;;;;;;;;;;34.40;71.60;;;;;;4140747;28;20207;-57
2022/08/03 11:18:10;;;;;;;;;;;34.30;71.50;;;;;;4139851;28;20035;-56
2022/08/03 11:20:38;;;;;;;;;;;34.40;71.90;;;;;;4146451;28;20445;-57
2022/08/03 11:22:47;;;;;;;;;;;34.10;71.90;;;;;;4138451;28;19925;-56
2022/08/03 11:24:52;;;;;;;;;;;34.00;74.20;;;;;;4144902;28;20387;-57
2022/08/03 11:27:21;;;;;;;;;;;34.20;70.40;;;;;;4160473;28;19924;-57
2022/08/03 11:29:27;;;;;;;;;;;34.30;70.40;;;;;;4129815;28;19925;-57
2022/08/03 11:31:33;;;;;;;;;;;34.10;68.90;;;;;;4130967;28;20426;-57
2022/08/03 11:34:07;;;;;;;;;;;34.20;70.10;;;;;;4146214;28;20326;-58
2022/08/03 11:36:18;;;;;;;;;;;34.20;72.20;;;;;;4131651;28;20382;-57
2022/08/03 11:38:34;;;;;;;;;;;33.80;67.50;;;;;;4137634;28;20285;-56
2022/08/03 11:40:56;;;;;;;;;;;33.60;69.70;;;;;;4145280;28;19976;-59
2022/08/03 11:42:58;;;;;;;;;;;33.90;68.50;;;;;;4139496;28;19928;-58
2022/08/03 11:45:05;;;;;;;;;;;34.10;70.70;;;;;;4144332;28;19921;-59
2022/08/03 11:47:11;;;;;;;;;;;34.30;67.20;;;;;;4134711;28;19944;-59
2022/08/03 11:49:22;;;;;;;;;;;33.20;68.60;;;;;;4144047;28;19961;-58
2022/08/03 11:51:28;;;;;;;;;;;33.30;70.20;;;;;;4141251;28;20317;-57
2022/08/03 11:53:30;;;;;;;;;;;33.70;71.50;;;;;;4145881;28;19929;-59
2022/08/03 11:55:52;;;;;;;;;;;34.40;71.30;;;;;;4094762;28;19929;-58
2022/08/03 11:57:57;;;;;;;;;;;34.80;68.30;;;;;;4094106;28;20284;-59
2022/08/03 12:00:20;;;;;;;;;;;34.90;66.50;;;;;;4107107;28;19929;-57
2022/08/03 12:02:23;;;;;;;;;;;34.80;65.60;;;;;;4145533;28;19921;-57
2022/08/03 12:04:25;;;;;;;;;;;34.50;66.50;;;;;;4132414;28;19944;-58
2022/08/03 12:06:29;;;;;;;;;;;34.70;66.80;;;;;;4132349;28;19925;-57
2022/08/03 12:08:32;;;;;;;;;;;34.70;65.80;;;;;;4145352;28;19925;-59
2022/08/03 12:10:37;;;;;;;;;;;34.70;65.80;;;;;;4137493;28;19976;-60
2022/08/03 12:12:41;;;;;;;;;;;34.60;64.20;;;;;;4130563;28;19929;-58
2022/08/03 12:14:48;;;;;;;;;;;34.60;65.90;;;;;;4145114;28;19921;-58
2022/08/03 12:16:54;;;;;;;;;;;34.40;65.20;;;;;;4138136;28;20115;-59
2022/08/03 12:18:59;;;;;;;;;;;34.30;68.40;;;;;;4143638;28;19921;-57
2022/08/03 12:21:07;;;;;;;;;;;34.50;66.20;;;;;;4145254;28;19960;-58
2022/08/03 12:23:09;;;;;;;;;;;34.90;68.30;;;;;;4138829;28;19921;-58
2022/08/03 12:25:20;;;;;;;;;;;34.90;65.60;;;;;;4129027;28;19940;-58
2022/08/03 12:27:43;;;;;;;;;;;34.90;65.90;;;;;;4128287;28;19978;-57